sensor_id;sensor_type;location;lat;lon;timestamp;temperature;humidity
21353;DHT22;10834;52.268;6.770;2024-02-26T00:02:13;4.30;99.90
21353;DHT22;10834;52.268;6.770;2024-02-26T00:04:58;4.30;99.90
21353;DHT22;10834;52.268;6.770;2024-02-26T00:07:42;4.40;99.90
21353;DHT22;10834;52.268;6.770;2024-02-26T00:10:27;4.40;99.90
21353;DHT22;10834;52.268;6.770;2024-02-26T00:13:12;4.40;99.90
21353;DHT22;10834;52.268;6.770;2024-02-26T00:15:56;4.40;99.90
21353;DHT22;10834;52.268;6.770;2024-02-26T00:18:40;4.40;99.90
21353;DHT22;10834;52.268;6.770;2024-02-26T00:21:25;4.40;99.90
21353;DHT22;10834;52.268;6.770;2024-02-26T00:24:08;4.40;99.90
21353;DHT22;10834;52.268;6.770;2024-02-26T00:26:53;4.40;99.90
21353;DHT22;10834;52.268;6.770;2024-02-26T00:29:38;4.40;99.90
21353;DHT22;10834;52.268;6.770;2024-02-26T00:32:22;4.40;99.90
21353;DHT22;10834;52.268;6.770;2024-02-26T00:35:07;4.40;99.90
21353;DHT22;10834;52.268;6.770;2024-02-26T00:37:53;4.40;99.90
21353;DHT22;10834;52.268;6.770;2024-02-26T00:40:37;4.40;99.90
21353;DHT22;10834;52.268;6.770;2024-02-26T00:43:21;4.40;99.90
21353;DHT22;10834;52.268;6.770;2024-02-26T00:46:06;4.40;99.90
21353;DHT22;10834;52.268;6.770;2024-02-26T00:48:50;4.30;99.90
21353;DHT22;10834;52.268;6.770;2024-02-26T00:51:34;4.30;99.90
21353;DHT22;10834;52.268;6.770;2024-02-26T00:54:18;4.20;99.90
21353;DHT22;10834;52.268;6.770;2024-02-26T00:57:03;4.20;99.90
21353;DHT22;10834;52.268;6.770;2024-02-26T00:59:47;4.10;99.90
21353;DHT22;10834;52.268;6.770;2024-02-26T01:02:32;4.10;99.90
21353;DHT22;10834;52.268;6.770;2024-02-26T01:05:16;4.10;99.90
21353;DHT22;10834;52.268;6.770;2024-02-26T01:08:00;4.10;99.90
21353;DHT22;10834;52.268;6.770;2024-02-26T01:10:44;4.10;99.90
21353;DHT22;10834;52.268;6.770;2024-02-26T01:13:29;4.10;99.90
21353;DHT22;10834;52.268;6.770;2024-02-26T01:16:13;4.10;99.90
21353;DHT22;10834;52.268;6.770;2024-02-26T01:18:57;4.00;99.90
21353;DHT22;10834;52.268;6.770;2024-02-26T01:21:41;4.00;99.90
21353;DHT22;10834;52.268;6.770;2024-02-26T01:24:26;4.00;99.90
21353;DHT22;10834;52.268;6.770;2024-02-26T01:27:11;4.00;99.90
21353;DHT22;10834;52.268;6.770;2024-02-26T01:29:55;4.10;99.90
21353;DHT22;10834;52.268;6.770;2024-02-26T01:32:40;4.00;99.90
21353;DHT22;10834;52.268;6.770;2024-02-26T01:35:23;4.00;99.90
21353;DHT22;10834;52.268;6.770;2024-02-26T01:38:08;4.10;99.90
21353;DHT22;10834;52.268;6.770;2024-02-26T01:40:52;4.00;99.90
21353;DHT22;10834;52.268;6.770;2024-02-26T01:43:36;4.10;99.90
21353;DHT22;10834;52.268;6.770;2024-02-26T01:46:20;4.10;99.90
21353;DHT22;10834;52.268;6.770;2024-02-26T01:49:05;4.10;99.90
21353;DHT22;10834;52.268;6.770;2024-02-26T01:51:50;4.10;99.90
21353;DHT22;10834;52.268;6.770;2024-02-26T01:54:35;4.10;99.90
21353;DHT22;10834;52.268;6.770;2024-02-26T01:57:20;4.10;99.90
21353;DHT22;10834;52.268;6.770;2024-02-26T02:00:05;4.10;99.90
21353;DHT22;10834;52.268;6.770;2024-02-26T02:02:50;4.10;99.90
21353;DHT22;10834;52.268;6.770;2024-02-26T02:05:36;4.10;99.90
21353;DHT22;10834;52.268;6.770;2024-02-26T02:08:27;4.10;99.90
21353;DHT22;10834;52.268;6.770;2024-02-26T02:11:11;4.10;99.90
21353;DHT22;10834;52.268;6.770;2024-02-26T02:13:56;4.10;99.90
21353;DHT22;10834;52.268;6.770;2024-02-26T02:16:40;4.10;99.90
21353;DHT22;10834;52.268;6.770;2024-02-26T02:19:25;4.10;99.90
21353;DHT22;10834;52.268;6.770;2024-02-26T02:22:09;4.30;99.90
21353;DHT22;10834;52.268;6.770;2024-02-26T02:24:53;4.20;99.90
21353;DHT22;10834;52.268;6.770;2024-02-26T02:27:38;4.20;99.90
21353;DHT22;10834;52.268;6.770;2024-02-26T02:30:29;4.20;99.90
21353;DHT22;10834;52.268;6.770;2024-02-26T02:33:13;4.20;99.90
21353;DHT22;10834;52.268;6.770;2024-02-26T02:35:59;4.20;99.90
21353;DHT22;10834;52.268;6.770;2024-02-26T02:38:50;4.20;99.90
21353;DHT22;10834;52.268;6.770;2024-02-26T02:41:35;4.20;99.90
21353;DHT22;10834;52.268;6.770;2024-02-26T02:44:20;4.20;99.90
21353;DHT22;10834;52.268;6.770;2024-02-26T02:47:04;4.30;99.90
21353;DHT22;10834;52.268;6.770;2024-02-26T02:49:48;4.20;99.90
21353;DHT22;10834;52.268;6.770;2024-02-26T02:52:32;4.20;99.90
21353;DHT22;10834;52.268;6.770;2024-02-26T02:55:17;4.30;99.90
21353;DHT22;10834;52.268;6.770;2024-02-26T02:58:02;4.30;99.90
21353;DHT22;10834;52.268;6.770;2024-02-26T03:00:46;4.30;99.90
21353;DHT22;10834;52.268;6.770;2024-02-26T03:03:30;4.30;99.90
21353;DHT22;10834;52.268;6.770;2024-02-26T03:06:14;4.30;99.90
21353;DHT22;10834;52.268;6.770;2024-02-26T03:08:58;4.40;99.90
21353;DHT22;10834;52.268;6.770;2024-02-26T03:11:42;4.40;99.90
21353;DHT22;10834;52.268;6.770;2024-02-26T03:14:27;4.50;99.90
21353;DHT22;10834;52.268;6.770;2024-02-26T03:17:11;4.50;99.90
21353;DHT22;10834;52.268;6.770;2024-02-26T03:19:55;4.50;99.90
21353;DHT22;10834;52.268;6.770;2024-02-26T03:22:39;4.50;99.90
21353;DHT22;10834;52.268;6.770;2024-02-26T03:25:24;4.60;99.90
21353;DHT22;10834;52.268;6.770;2024-02-26T03:28:08;4.60;99.90
21353;DHT22;10834;52.268;6.770;2024-02-26T03:30:52;4.60;99.90
21353;DHT22;10834;52.268;6.770;2024-02-26T03:33:36;4.70;99.90
21353;DHT22;10834;52.268;6.770;2024-02-26T03:36:21;4.70;99.90
21353;DHT22;10834;52.268;6.770;2024-02-26T03:39:08;4.70;99.90
21353;DHT22;10834;52.268;6.770;2024-02-26T03:41:53;4.70;99.90
21353;DHT22;10834;52.268;6.770;2024-02-26T03:44:38;4.60;99.90
21353;DHT22;10834;52.268;6.770;2024-02-26T03:47:22;4.70;99.90
21353;DHT22;10834;52.268;6.770;2024-02-26T03:50:06;4.60;99.90
21353;DHT22;10834;52.268;6.770;2024-02-26T03:52:51;4.60;99.90
21353;DHT22;10834;52.268;6.770;2024-02-26T03:55:35;4.60;99.90
21353;DHT22;10834;52.268;6.770;2024-02-26T03:58:20;4.60;99.90
21353;DHT22;10834;52.268;6.770;2024-02-26T04:01:04;4.60;99.90
21353;DHT22;10834;52.268;6.770;2024-02-26T04:03:48;4.50;99.90
21353;DHT22;10834;52.268;6.770;2024-02-26T04:06:32;4.70;99.90
21353;DHT22;10834;52.268;6.770;2024-02-26T04:09:16;4.70;99.90
21353;DHT22;10834;52.268;6.770;2024-02-26T04:12:00;4.70;99.90
21353;DHT22;10834;52.268;6.770;2024-02-26T04:14:44;4.60;99.90
21353;DHT22;10834;52.268;6.770;2024-02-26T04:17:29;4.70;99.90
21353;DHT22;10834;52.268;6.770;2024-02-26T04:20:15;4.70;99.90
21353;DHT22;10834;52.268;6.770;2024-02-26T04:22:59;4.70;99.90
21353;DHT22;10834;52.268;6.770;2024-02-26T04:25:43;4.70;99.90
21353;DHT22;10834;52.268;6.770;2024-02-26T04:28:27;4.70;99.90
21353;DHT22;10834;52.268;6.770;2024-02-26T04:31:13;4.70;99.90
21353;DHT22;10834;52.268;6.770;2024-02-26T04:33:57;4.70;99.90
21353;DHT22;10834;52.268;6.770;2024-02-26T04:36:42;4.70;99.90
21353;DHT22;10834;52.268;6.770;2024-02-26T04:39:26;4.70;99.90
21353;DHT22;10834;52.268;6.770;2024-02-26T04:42:10;4.80;99.90
21353;DHT22;10834;52.268;6.770;2024-02-26T04:44:55;4.70;99.90
21353;DHT22;10834;52.268;6.770;2024-02-26T04:47:39;4.80;99.90
21353;DHT22;10834;52.268;6.770;2024-02-26T04:50:23;4.80;99.90
21353;DHT22;10834;52.268;6.770;2024-02-26T04:53:07;4.80;99.90
21353;DHT22;10834;52.268;6.770;2024-02-26T04:55:52;4.80;99.90
21353;DHT22;10834;52.268;6.770;2024-02-26T04:58:36;4.80;99.90
21353;DHT22;10834;52.268;6.770;2024-02-26T05:01:21;4.90;99.90
21353;DHT22;10834;52.268;6.770;2024-02-26T05:04:05;4.90;99.90
21353;DHT22;10834;52.268;6.770;2024-02-26T05:06:49;4.90;99.90
21353;DHT22;10834;52.268;6.770;2024-02-26T05:09:33;4.90;99.90
21353;DHT22;10834;52.268;6.770;2024-02-26T05:12:17;4.90;99.90
21353;DHT22;10834;52.268;6.770;2024-02-26T05:15:02;4.90;99.90
21353;DHT22;10834;52.268;6.770;2024-02-26T05:17:46;4.90;99.90
21353;DHT22;10834;52.268;6.770;2024-02-26T05:20:31;4.90;99.90
21353;DHT22;10834;52.268;6.770;2024-02-26T05:23:16;4.90;99.90
21353;DHT22;10834;52.268;6.770;2024-02-26T05:26:00;4.90;99.90
21353;DHT22;10834;52.268;6.770;2024-02-26T05:28:44;4.90;99.90
21353;DHT22;10834;52.268;6.770;2024-02-26T05:31:28;4.90;99.90
21353;DHT22;10834;52.268;6.770;2024-02-26T05:34:13;4.90;99.90
21353;DHT22;10834;52.268;6.770;2024-02-26T05:36:57;4.90;99.90
21353;DHT22;10834;52.268;6.770;2024-02-26T05:39:41;4.90;99.90
21353;DHT22;10834;52.268;6.770;2024-02-26T05:42:25;5.00;99.90
21353;DHT22;10834;52.268;6.770;2024-02-26T05:45:09;4.90;99.90
21353;DHT22;10834;52.268;6.770;2024-02-26T05:47:53;4.90;99.90
21353;DHT22;10834;52.268;6.770;2024-02-26T05:50:38;5.00;99.90
21353;DHT22;10834;52.268;6.770;2024-02-26T05:53:22;5.00;99.90
21353;DHT22;10834;52.268;6.770;2024-02-26T05:56:06;5.00;99.90
21353;DHT22;10834;52.268;6.770;2024-02-26T05:58:51;5.00;99.90
21353;DHT22;10834;52.268;6.770;2024-02-26T06:01:35;5.00;99.90
21353;DHT22;10834;52.268;6.770;2024-02-26T06:04:19;5.10;99.90
21353;DHT22;10834;52.268;6.770;2024-02-26T06:07:03;5.00;99.90
21353;DHT22;10834;52.268;6.770;2024-02-26T06:09:49;5.10;99.90
21353;DHT22;10834;52.268;6.770;2024-02-26T06:12:35;5.10;99.90
21353;DHT22;10834;52.268;6.770;2024-02-26T06:15:20;5.20;99.90
21353;DHT22;10834;52.268;6.770;2024-02-26T06:18:04;5.20;99.90
21353;DHT22;10834;52.268;6.770;2024-02-26T06:20:49;5.10;99.90
21353;DHT22;10834;52.268;6.770;2024-02-26T06:23:33;5.20;99.90
21353;DHT22;10834;52.268;6.770;2024-02-26T06:26:17;5.20;99.90
21353;DHT22;10834;52.268;6.770;2024-02-26T06:29:02;5.20;99.90
21353;DHT22;10834;52.268;6.770;2024-02-26T06:31:47;5.20;99.90
21353;DHT22;10834;52.268;6.770;2024-02-26T06:34:32;5.20;99.90
21353;DHT22;10834;52.268;6.770;2024-02-26T06:37:17;5.20;99.90
21353;DHT22;10834;52.268;6.770;2024-02-26T06:40:01;5.20;99.90
21353;DHT22;10834;52.268;6.770;2024-02-26T06:42:47;5.20;99.90
21353;DHT22;10834;52.268;6.770;2024-02-26T06:45:31;5.20;99.90
21353;DHT22;10834;52.268;6.770;2024-02-26T06:48:16;5.20;99.90
21353;DHT22;10834;52.268;6.770;2024-02-26T06:51:00;5.20;99.90
21353;DHT22;10834;52.268;6.770;2024-02-26T06:53:44;5.20;99.90
21353;DHT22;10834;52.268;6.770;2024-02-26T06:56:28;5.20;99.90
21353;DHT22;10834;52.268;6.770;2024-02-26T06:59:12;5.20;99.90
21353;DHT22;10834;52.268;6.770;2024-02-26T07:01:57;5.20;99.90
21353;DHT22;10834;52.268;6.770;2024-02-26T07:04:40;5.20;99.90
21353;DHT22;10834;52.268;6.770;2024-02-26T07:07:25;5.30;99.90
21353;DHT22;10834;52.268;6.770;2024-02-26T07:10:10;5.20;99.90
21353;DHT22;10834;52.268;6.770;2024-02-26T07:12:56;5.30;99.90
21353;DHT22;10834;52.268;6.770;2024-02-26T07:15:40;5.30;99.90
21353;DHT22;10834;52.268;6.770;2024-02-26T07:18:24;5.20;99.90
21353;DHT22;10834;52.268;6.770;2024-02-26T07:21:08;5.30;99.90
21353;DHT22;10834;52.268;6.770;2024-02-26T07:23:53;5.30;99.90
21353;DHT22;10834;52.268;6.770;2024-02-26T07:26:37;5.30;99.90
21353;DHT22;10834;52.268;6.770;2024-02-26T07:29:21;5.30;99.90
21353;DHT22;10834;52.268;6.770;2024-02-26T07:32:06;5.40;99.90
21353;DHT22;10834;52.268;6.770;2024-02-26T07:34:50;5.40;99.90
21353;DHT22;10834;52.268;6.770;2024-02-26T07:37:34;5.40;99.90
21353;DHT22;10834;52.268;6.770;2024-02-26T07:40:19;5.40;99.90
21353;DHT22;10834;52.268;6.770;2024-02-26T07:43:03;5.40;99.90
21353;DHT22;10834;52.268;6.770;2024-02-26T07:45:48;5.40;99.90
21353;DHT22;10834;52.268;6.770;2024-02-26T07:48:31;5.40;99.90
21353;DHT22;10834;52.268;6.770;2024-02-26T07:51:15;5.50;99.90
21353;DHT22;10834;52.268;6.770;2024-02-26T07:54:01;5.50;99.90
21353;DHT22;10834;52.268;6.770;2024-02-26T07:56:45;5.50;99.90
21353;DHT22;10834;52.268;6.770;2024-02-26T07:59:29;5.50;99.90
21353;DHT22;10834;52.268;6.770;2024-02-26T08:02:15;5.60;99.90
21353;DHT22;10834;52.268;6.770;2024-02-26T08:04:59;5.60;99.90
21353;DHT22;10834;52.268;6.770;2024-02-26T08:07:43;5.60;99.90
21353;DHT22;10834;52.268;6.770;2024-02-26T08:10:27;5.70;99.90
21353;DHT22;10834;52.268;6.770;2024-02-26T08:13:12;5.60;99.90
21353;DHT22;10834;52.268;6.770;2024-02-26T08:15:56;5.70;99.90
21353;DHT22;10834;52.268;6.770;2024-02-26T08:18:40;5.70;99.90
21353;DHT22;10834;52.268;6.770;2024-02-26T08:21:24;5.70;99.90
21353;DHT22;10834;52.268;6.770;2024-02-26T08:24:08;5.70;99.90
21353;DHT22;10834;52.268;6.770;2024-02-26T08:26:53;5.80;99.90
21353;DHT22;10834;52.268;6.770;2024-02-26T08:29:37;5.80;99.90
21353;DHT22;10834;52.268;6.770;2024-02-26T08:32:21;5.80;99.90
21353;DHT22;10834;52.268;6.770;2024-02-26T08:35:06;5.80;99.90
21353;DHT22;10834;52.268;6.770;2024-02-26T08:37:50;5.80;99.90
21353;DHT22;10834;52.268;6.770;2024-02-26T08:40:35;5.80;99.90
21353;DHT22;10834;52.268;6.770;2024-02-26T08:43:19;5.80;99.90
21353;DHT22;10834;52.268;6.770;2024-02-26T08:46:04;5.90;99.90
21353;DHT22;10834;52.268;6.770;2024-02-26T08:48:51;5.90;99.90
21353;DHT22;10834;52.268;6.770;2024-02-26T08:51:41;5.90;99.90
21353;DHT22;10834;52.268;6.770;2024-02-26T08:54:26;6.00;99.90
21353;DHT22;10834;52.268;6.770;2024-02-26T08:57:10;5.90;99.90
21353;DHT22;10834;52.268;6.770;2024-02-26T08:59:55;6.00;99.90
21353;DHT22;10834;52.268;6.770;2024-02-26T09:02:38;6.00;99.90
21353;DHT22;10834;52.268;6.770;2024-02-26T09:05:23;6.00;99.90
21353;DHT22;10834;52.268;6.770;2024-02-26T09:08:07;6.00;99.90
21353;DHT22;10834;52.268;6.770;2024-02-26T09:10:51;6.10;99.90
21353;DHT22;10834;52.268;6.770;2024-02-26T09:13:35;6.20;99.90
21353;DHT22;10834;52.268;6.770;2024-02-26T09:16:19;6.20;99.90
21353;DHT22;10834;52.268;6.770;2024-02-26T09:19:03;6.30;99.90
21353;DHT22;10834;52.268;6.770;2024-02-26T09:21:47;6.30;99.90
21353;DHT22;10834;52.268;6.770;2024-02-26T09:24:32;6.40;99.90
21353;DHT22;10834;52.268;6.770;2024-02-26T09:27:16;6.40;99.90
21353;DHT22;10834;52.268;6.770;2024-02-26T09:30:00;6.40;99.90
21353;DHT22;10834;52.268;6.770;2024-02-26T09:32:46;6.50;99.90
21353;DHT22;10834;52.268;6.770;2024-02-26T09:35:32;6.50;99.90
21353;DHT22;10834;52.268;6.770;2024-02-26T09:38:16;6.50;99.90
21353;DHT22;10834;52.268;6.770;2024-02-26T09:41:00;6.60;99.90
21353;DHT22;10834;52.268;6.770;2024-02-26T09:43:45;6.60;99.90
21353;DHT22;10834;52.268;6.770;2024-02-26T09:46:33;6.60;99.90
21353;DHT22;10834;52.268;6.770;2024-02-26T09:49:23;6.60;99.90
21353;DHT22;10834;52.268;6.770;2024-02-26T09:52:08;6.70;99.90
21353;DHT22;10834;52.268;6.770;2024-02-26T09:54:53;6.70;99.90
21353;DHT22;10834;52.268;6.770;2024-02-26T09:57:45;6.70;99.90
21353;DHT22;10834;52.268;6.770;2024-02-26T10:00:31;6.70;99.90
21353;DHT22;10834;52.268;6.770;2024-02-26T10:03:21;6.70;99.90
21353;DHT22;10834;52.268;6.770;2024-02-26T10:06:08;6.70;99.90
21353;DHT22;10834;52.268;6.770;2024-02-26T10:08:54;6.80;99.90
21353;DHT22;10834;52.268;6.770;2024-02-26T10:11:42;6.80;99.90
21353;DHT22;10834;52.268;6.770;2024-02-26T10:14:27;6.80;99.90
21353;DHT22;10834;52.268;6.770;2024-02-26T10:17:11;6.90;99.90
21353;DHT22;10834;52.268;6.770;2024-02-26T10:20:13;7.00;99.90
21353;DHT22;10834;52.268;6.770;2024-02-26T10:23:05;7.10;99.90
21353;DHT22;10834;52.268;6.770;2024-02-26T10:25:56;7.20;99.90
21353;DHT22;10834;52.268;6.770;2024-02-26T10:28:44;7.30;99.90
21353;DHT22;10834;52.268;6.770;2024-02-26T10:31:29;7.40;99.90
21353;DHT22;10834;52.268;6.770;2024-02-26T10:34:17;7.40;99.90
21353;DHT22;10834;52.268;6.770;2024-02-26T10:37:02;7.30;99.90
21353;DHT22;10834;52.268;6.770;2024-02-26T10:39:47;7.30;99.90
21353;DHT22;10834;52.268;6.770;2024-02-26T10:42:31;7.20;99.90
21353;DHT22;10834;52.268;6.770;2024-02-26T10:45:16;7.20;99.90
21353;DHT22;10834;52.268;6.770;2024-02-26T10:48:00;7.20;99.90
21353;DHT22;10834;52.268;6.770;2024-02-26T10:50:46;7.10;99.90
21353;DHT22;10834;52.268;6.770;2024-02-26T10:53:32;7.00;99.90
21353;DHT22;10834;52.268;6.770;2024-02-26T10:56:18;7.00;99.90
21353;DHT22;10834;52.268;6.770;2024-02-26T10:59:02;7.00;99.90
21353;DHT22;10834;52.268;6.770;2024-02-26T11:01:48;7.00;99.90
21353;DHT22;10834;52.268;6.770;2024-02-26T11:04:33;7.00;99.90
21353;DHT22;10834;52.268;6.770;2024-02-26T11:07:18;7.00;99.90
21353;DHT22;10834;52.268;6.770;2024-02-26T11:10:04;7.00;99.90
21353;DHT22;10834;52.268;6.770;2024-02-26T11:12:52;7.00;99.90
21353;DHT22;10834;52.268;6.770;2024-02-26T11:15:39;7.00;99.90
21353;DHT22;10834;52.268;6.770;2024-02-26T11:18:26;7.00;99.90
21353;DHT22;10834;52.268;6.770;2024-02-26T11:21:15;7.00;99.90
21353;DHT22;10834;52.268;6.770;2024-02-26T11:24:02;7.00;99.90
21353;DHT22;10834;52.268;6.770;2024-02-26T11:26:49;7.00;99.90
21353;DHT22;10834;52.268;6.770;2024-02-26T11:29:43;7.00;99.90
21353;DHT22;10834;52.268;6.770;2024-02-26T11:32:30;7.00;99.90
21353;DHT22;10834;52.268;6.770;2024-02-26T11:35:15;7.00;99.90
21353;DHT22;10834;52.268;6.770;2024-02-26T11:38:01;7.00;99.90
21353;DHT22;10834;52.268;6.770;2024-02-26T11:40:47;7.00;99.90
21353;DHT22;10834;52.268;6.770;2024-02-26T11:43:51;7.10;99.90
21353;DHT22;10834;52.268;6.770;2024-02-26T11:46:40;7.10;99.90
21353;DHT22;10834;52.268;6.770;2024-02-26T11:52:13;7.10;99.90
21353;DHT22;10834;52.268;6.770;2024-02-26T11:54:58;7.10;99.90
21353;DHT22;10834;52.268;6.770;2024-02-26T11:57:43;7.10;99.90
21353;DHT22;10834;52.268;6.770;2024-02-26T12:00:27;7.20;99.90
21353;DHT22;10834;52.268;6.770;2024-02-26T12:03:12;7.20;99.90
21353;DHT22;10834;52.268;6.770;2024-02-26T12:05:56;7.30;99.90
21353;DHT22;10834;52.268;6.770;2024-02-26T12:08:44;7.30;99.90
21353;DHT22;10834;52.268;6.770;2024-02-26T12:11:28;7.30;99.90
21353;DHT22;10834;52.268;6.770;2024-02-26T12:14:12;7.30;99.90
21353;DHT22;10834;52.268;6.770;2024-02-26T12:16:56;7.40;99.90
21353;DHT22;10834;52.268;6.770;2024-02-26T12:19:42;7.40;99.90
21353;DHT22;10834;52.268;6.770;2024-02-26T12:22:27;7.40;99.90
21353;DHT22;10834;52.268;6.770;2024-02-26T12:25:12;7.40;99.90
21353;DHT22;10834;52.268;6.770;2024-02-26T12:27:57;7.40;99.90
21353;DHT22;10834;52.268;6.770;2024-02-26T12:30:41;7.40;99.90
21353;DHT22;10834;52.268;6.770;2024-02-26T12:33:26;7.40;99.90
21353;DHT22;10834;52.268;6.770;2024-02-26T12:36:10;7.40;99.90
21353;DHT22;10834;52.268;6.770;2024-02-26T12:38:54;7.50;99.90
21353;DHT22;10834;52.268;6.770;2024-02-26T12:41:40;7.50;99.90
21353;DHT22;10834;52.268;6.770;2024-02-26T12:44:25;7.50;99.90
21353;DHT22;10834;52.268;6.770;2024-02-26T12:47:10;7.50;99.90
21353;DHT22;10834;52.268;6.770;2024-02-26T12:50:00;7.60;99.90
21353;DHT22;10834;52.268;6.770;2024-02-26T12:52:46;7.60;99.90
21353;DHT22;10834;52.268;6.770;2024-02-26T12:55:32;7.60;99.90
21353;DHT22;10834;52.268;6.770;2024-02-26T12:58:18;7.60;99.90
21353;DHT22;10834;52.268;6.770;2024-02-26T13:01:04;7.60;99.90
21353;DHT22;10834;52.268;6.770;2024-02-26T13:03:51;7.60;99.90
21353;DHT22;10834;52.268;6.770;2024-02-26T13:06:35;7.60;99.90
21353;DHT22;10834;52.268;6.770;2024-02-26T13:09:20;7.70;99.90
21353;DHT22;10834;52.268;6.770;2024-02-26T13:12:07;7.70;99.90
21353;DHT22;10834;52.268;6.770;2024-02-26T13:15:04;7.70;99.90
21353;DHT22;10834;52.268;6.770;2024-02-26T13:17:49;7.70;99.90
21353;DHT22;10834;52.268;6.770;2024-02-26T13:20:33;7.70;99.90
21353;DHT22;10834;52.268;6.770;2024-02-26T13:23:18;7.70;99.90
21353;DHT22;10834;52.268;6.770;2024-02-26T13:26:02;7.70;99.90
21353;DHT22;10834;52.268;6.770;2024-02-26T13:28:46;7.80;99.90
21353;DHT22;10834;52.268;6.770;2024-02-26T13:31:31;7.70;99.90
21353;DHT22;10834;52.268;6.770;2024-02-26T13:37:09;7.80;99.90
21353;DHT22;10834;52.268;6.770;2024-02-26T13:39:53;7.80;99.90
21353;DHT22;10834;52.268;6.770;2024-02-26T13:42:38;7.90;99.90
21353;DHT22;10834;52.268;6.770;2024-02-26T13:45:23;7.90;99.90
21353;DHT22;10834;52.268;6.770;2024-02-26T13:48:11;7.90;99.90
21353;DHT22;10834;52.268;6.770;2024-02-26T13:50:55;7.90;99.90
21353;DHT22;10834;52.268;6.770;2024-02-26T13:53:39;7.90;99.90
21353;DHT22;10834;52.268;6.770;2024-02-26T13:56:23;7.90;99.90
21353;DHT22;10834;52.268;6.770;2024-02-26T13:59:07;7.90;99.90
21353;DHT22;10834;52.268;6.770;2024-02-26T14:01:51;7.80;99.90
21353;DHT22;10834;52.268;6.770;2024-02-26T14:04:37;7.90;99.90
21353;DHT22;10834;52.268;6.770;2024-02-26T14:07:22;7.80;99.90
21353;DHT22;10834;52.268;6.770;2024-02-26T14:10:07;7.80;99.90
21353;DHT22;10834;52.268;6.770;2024-02-26T14:12:52;7.80;99.90
21353;DHT22;10834;52.268;6.770;2024-02-26T14:15:37;7.70;99.90
21353;DHT22;10834;52.268;6.770;2024-02-26T14:18:22;7.70;99.90
21353;DHT22;10834;52.268;6.770;2024-02-26T14:21:07;7.70;99.90
21353;DHT22;10834;52.268;6.770;2024-02-26T14:23:51;7.70;99.90
21353;DHT22;10834;52.268;6.770;2024-02-26T14:26:35;7.70;99.90
21353;DHT22;10834;52.268;6.770;2024-02-26T14:29:19;7.70;99.90
21353;DHT22;10834;52.268;6.770;2024-02-26T14:32:03;7.70;99.90
21353;DHT22;10834;52.268;6.770;2024-02-26T14:34:48;7.70;99.90
21353;DHT22;10834;52.268;6.770;2024-02-26T14:37:32;7.70;99.90
21353;DHT22;10834;52.268;6.770;2024-02-26T14:40:16;7.60;99.90
21353;DHT22;10834;52.268;6.770;2024-02-26T14:43:00;7.60;99.90
21353;DHT22;10834;52.268;6.770;2024-02-26T14:45:45;7.50;99.90
21353;DHT22;10834;52.268;6.770;2024-02-26T14:48:30;7.50;99.90
21353;DHT22;10834;52.268;6.770;2024-02-26T14:51:15;7.50;99.90
21353;DHT22;10834;52.268;6.770;2024-02-26T14:53:59;7.50;99.90
21353;DHT22;10834;52.268;6.770;2024-02-26T14:56:46;7.50;99.90
21353;DHT22;10834;52.268;6.770;2024-02-26T14:59:30;7.50;99.90
21353;DHT22;10834;52.268;6.770;2024-02-26T15:02:15;7.50;99.90
21353;DHT22;10834;52.268;6.770;2024-02-26T15:05:00;7.50;99.90
21353;DHT22;10834;52.268;6.770;2024-02-26T15:07:44;7.50;99.90
21353;DHT22;10834;52.268;6.770;2024-02-26T15:10:28;7.50;99.90
21353;DHT22;10834;52.268;6.770;2024-02-26T15:13:13;7.50;99.90
21353;DHT22;10834;52.268;6.770;2024-02-26T15:15:57;7.50;99.90
21353;DHT22;10834;52.268;6.770;2024-02-26T15:18:41;7.50;99.90
21353;DHT22;10834;52.268;6.770;2024-02-26T15:21:25;7.40;99.90
21353;DHT22;10834;52.268;6.770;2024-02-26T15:24:10;7.40;99.90
21353;DHT22;10834;52.268;6.770;2024-02-26T15:26:55;7.40;99.90
21353;DHT22;10834;52.268;6.770;2024-02-26T15:29:40;7.40;99.90
21353;DHT22;10834;52.268;6.770;2024-02-26T15:32:24;7.40;99.90
21353;DHT22;10834;52.268;6.770;2024-02-26T15:35:10;7.40;99.90
21353;DHT22;10834;52.268;6.770;2024-02-26T15:37:54;7.40;99.90
21353;DHT22;10834;52.268;6.770;2024-02-26T15:40:38;7.40;99.90
21353;DHT22;10834;52.268;6.770;2024-02-26T15:43:23;7.40;99.90
21353;DHT22;10834;52.268;6.770;2024-02-26T15:46:07;7.40;99.90
21353;DHT22;10834;52.268;6.770;2024-02-26T15:48:52;7.40;99.90
21353;DHT22;10834;52.268;6.770;2024-02-26T15:51:36;7.30;99.90
21353;DHT22;10834;52.268;6.770;2024-02-26T15:54:20;7.30;99.90
21353;DHT22;10834;52.268;6.770;2024-02-26T15:57:04;7.20;99.90
21353;DHT22;10834;52.268;6.770;2024-02-26T15:59:49;7.20;99.90
21353;DHT22;10834;52.268;6.770;2024-02-26T16:02:34;7.20;99.90
21353;DHT22;10834;52.268;6.770;2024-02-26T16:05:18;7.20;99.90
21353;DHT22;10834;52.268;6.770;2024-02-26T16:08:22;7.10;99.90
21353;DHT22;10834;52.268;6.770;2024-02-26T16:11:06;7.10;99.90
21353;DHT22;10834;52.268;6.770;2024-02-26T16:13:59;7.00;99.90
21353;DHT22;10834;52.268;6.770;2024-02-26T16:16:52;7.00;99.90
21353;DHT22;10834;52.268;6.770;2024-02-26T16:19:36;7.00;99.90
21353;DHT22;10834;52.268;6.770;2024-02-26T16:22:21;6.90;99.90
21353;DHT22;10834;52.268;6.770;2024-02-26T16:25:05;6.90;99.90
21353;DHT22;10834;52.268;6.770;2024-02-26T16:27:50;6.90;99.90
21353;DHT22;10834;52.268;6.770;2024-02-26T16:30:34;6.90;99.90
21353;DHT22;10834;52.268;6.770;2024-02-26T16:33:18;6.80;99.90
21353;DHT22;10834;52.268;6.770;2024-02-26T16:36:03;6.80;99.90
21353;DHT22;10834;52.268;6.770;2024-02-26T16:38:47;6.80;99.90
21353;DHT22;10834;52.268;6.770;2024-02-26T16:41:33;6.70;99.90
21353;DHT22;10834;52.268;6.770;2024-02-26T16:44:17;6.70;99.90
21353;DHT22;10834;52.268;6.770;2024-02-26T16:47:03;6.60;99.90
21353;DHT22;10834;52.268;6.770;2024-02-26T16:49:47;6.60;99.90
21353;DHT22;10834;52.268;6.770;2024-02-26T16:52:32;6.50;99.90
21353;DHT22;10834;52.268;6.770;2024-02-26T16:55:17;6.50;99.90
21353;DHT22;10834;52.268;6.770;2024-02-26T16:58:01;6.50;99.90
21353;DHT22;10834;52.268;6.770;2024-02-26T17:00:45;6.40;99.90
21353;DHT22;10834;52.268;6.770;2024-02-26T17:03:30;6.40;99.90
21353;DHT22;10834;52.268;6.770;2024-02-26T17:06:15;6.30;99.90
21353;DHT22;10834;52.268;6.770;2024-02-26T17:09:01;6.30;99.90
21353;DHT22;10834;52.268;6.770;2024-02-26T17:11:48;6.20;99.90
21353;DHT22;10834;52.268;6.770;2024-02-26T17:14:32;6.20;99.90
21353;DHT22;10834;52.268;6.770;2024-02-26T17:17:16;6.10;99.90
21353;DHT22;10834;52.268;6.770;2024-02-26T17:20:01;6.10;99.90
21353;DHT22;10834;52.268;6.770;2024-02-26T17:22:47;6.10;99.90
21353;DHT22;10834;52.268;6.770;2024-02-26T17:25:32;6.10;99.90
21353;DHT22;10834;52.268;6.770;2024-02-26T17:28:16;6.10;99.90
21353;DHT22;10834;52.268;6.770;2024-02-26T17:31:02;6.10;99.90
21353;DHT22;10834;52.268;6.770;2024-02-26T17:33:48;6.10;99.90
21353;DHT22;10834;52.268;6.770;2024-02-26T17:36:36;6.10;99.90
21353;DHT22;10834;52.268;6.770;2024-02-26T17:39:20;6.10;99.90
21353;DHT22;10834;52.268;6.770;2024-02-26T17:42:05;6.10;99.90
21353;DHT22;10834;52.268;6.770;2024-02-26T17:44:49;6.10;99.90